Time;durP1;ratioP1;P1;durP2;ratioP2;P2;SDS_P1;SDS_P2;PMS_P1;PMS_P2;Temp;Humidity;BMP_temperature;BMP_pressure;BME280_temperature;BME280_humidity;BME280_pressure;Samples;Min_cycle;Max_cycle;Signal;HPM_P1;HPM_P2
2022/07/12 00:02:13;;;;;;;;;;;;;;;17.04;85.87;102419.44;5073544;28;20514;-36
2022/07/12 00:04:39;;;;;;;3.08;1.40;;;;;;;16.72;89.38;102403.31;5073059;28;19916;-36
2022/07/12 00:07:04;;;;;;;;;;;;;;;16.98;86.10;102417.59;5073752;28;20476;-36
2022/07/12 00:09:29;;;;;;;3.17;1.57;;;;;;;16.81;88.71;102413.91;5072632;28;20325;-36
2022/07/12 00:11:55;;;;;;;;;;;;;;;16.93;86.08;102410.16;5077271;28;20040;-36
2022/07/12 00:14:20;;;;;;;1.42;1.15;;;;;;;16.77;89.23;102404.53;5076951;28;20019;-36
2022/07/12 00:16:46;;;;;;;;;;;;;;;16.92;86.34;102413.94;5077655;28;20070;-36
2022/07/12 00:19:11;;;;;;;3.70;1.80;;;;;;;16.73;88.64;102409.63;5076370;28;20284;-36
2022/07/12 00:21:36;;;;;;;;;;;;;;;16.89;86.49;102408.13;5076785;28;20107;-36
2022/07/12 00:24:02;;;;;;;2.30;1.83;;;;;;;16.70;89.23;102405.44;5076578;28;20009;-36
2022/07/12 00:26:27;;;;;;;;;;;;;;;16.85;86.76;102401.47;5077668;28;20123;-36
2022/07/12 00:28:52;;;;;;;1.90;1.60;;;;;;;16.64;89.23;102405.50;5076846;28;20416;-36
2022/07/12 00:31:17;;;;;;;;;;;;;;;16.78;86.71;102412.47;5077133;28;20599;-36
2022/07/12 00:33:43;;;;;;;2.47;1.87;;;;;;;16.59;89.14;102408.97;5076362;28;19915;-36
2022/07/12 00:36:08;;;;;;;;;;;;;;;16.74;86.83;102400.38;5077495;28;20320;-36
2022/07/12 00:38:33;;;;;;;2.28;1.92;;;;;;;16.55;88.82;102405.03;5076293;28;20345;-36
2022/07/12 00:40:58;;;;;;;;;;;;;;;16.68;86.95;102401.25;5077401;28;20349;-36
2022/07/12 00:43:24;;;;;;;1.90;1.63;;;;;;;16.40;89.35;102378.16;5076427;28;20061;-36
2022/07/12 00:45:49;;;;;;;;;;;;;;;16.64;86.71;102398.19;5077076;28;20266;-36
2022/07/12 00:48:17;;;;;;;4.03;2.10;;;;;;;16.39;89.13;102401.03;5075903;28;19916;-36
2022/07/12 00:50:45;;;;;;;2.08;1.70;;;;;;;16.30;90.11;102402.47;5075920;28;20720;-36
2022/07/12 00:53:10;;;;;;;3.60;2.22;;;;;;;16.33;90.48;102403.88;5075653;28;20032;-35
2022/07/12 00:55:35;;;;;;;;;;;;;;;16.49;88.19;102400.50;5076275;28;20086;-35
2022/07/12 00:58:00;;;;;;;3.60;2.10;;;;;;;16.28;90.26;102395.56;5075954;28;19908;-35
2022/07/12 01:00:28;;;;;;;2.38;1.90;;;;;;;16.17;89.78;102395.28;5075590;28;20039;-35
2022/07/12 01:02:58;;;;;;;3.70;2.17;;;;;;;16.21;90.89;102404.69;5076151;28;20059;-36
2022/07/12 01:05:24;;;;;;;2.95;2.10;;;;;;;16.14;90.86;102409.38;5076566;28;20032;-36
2022/07/12 01:07:49;;;;;;;;;;;;;;;16.32;88.72;102407.69;5076424;28;20097;-36
2022/07/12 01:10:15;;;;;;;2.83;2.00;;;;;;;16.14;90.63;102409.38;5075552;28;19965;-36
2022/07/12 01:12:40;;;;;;;;;;;;;;;16.30;88.62;102407.94;5076110;28;20028;-36
2022/07/12 01:15:08;;;;;;;3.10;2.30;;;;;;;16.10;91.54;102410.91;5075549;28;19923;-36
2022/07/12 01:17:34;;;;;;;3.97;2.28;;;;;;;16.11;90.54;102404.41;5075753;28;20035;-36
2022/07/12 01:20:00;;;;;;;2.78;2.58;;;;;;;15.98;90.93;102393.66;5075516;28;20060;-36
2022/07/12 01:22:29;;;;;;;;;;;;;;;16.27;89.16;102421.19;5075408;28;20077;-36
2022/07/12 01:24:56;;;;;;;3.65;2.80;;;;;;;16.13;91.81;102412.34;5075409;28;20256;-36
2022/07/12 01:27:21;;;;;;;3.30;2.67;;;;;;;16.10;91.43;102423.72;5075691;28;20408;-36
2022/07/12 01:29:46;;;;;;;3.15;2.75;;;;;;;16.03;91.92;102414.78;5075221;28;20029;-36
2022/07/12 01:32:24;;;;;;;3.80;2.83;;;;;;;16.04;91.35;102427.38;5075079;28;20033;-35
2022/07/12 01:34:55;;;;;;;2.80;2.40;;;;;;;15.95;91.85;102421.38;5074683;28;20107;-35
2022/07/12 01:37:22;;;;;;;3.15;2.85;;;;;;;15.93;92.21;102429.78;5075192;28;20469;-35
2022/07/12 01:39:58;;;;;;;2.78;2.55;;;;;;;15.89;92.10;102430.47;5075494;28;20033;-36
2022/07/12 01:42:25;;;;;;;4.63;2.63;;;;;;;15.84;91.56;102427.59;5075342;28;20031;-36
2022/07/12 01:44:51;;;;;;;2.63;2.05;;;;;;;15.78;92.04;102423.06;5074939;28;20037;-36
2022/07/12 01:47:29;;;;;;;2.60;2.20;;;;;;;15.78;92.09;102428.53;5074733;28;20029;-36
2022/07/12 01:49:54;;;;;;;2.75;2.53;;;;;;;15.81;92.17;102430.78;5075310;28;20044;-36
2022/07/12 01:52:20;;;;;;;2.55;2.28;;;;;;;15.83;92.39;102425.94;5075202;28;20391;-36
2022/07/12 01:54:46;;;;;;;;;;;;;;;15.96;90.81;102432.09;5075292;28;20089;-36
2022/07/12 01:57:12;;;;;;;2.67;2.47;;;;;;;15.81;91.56;102428.03;5075121;28;20081;-36
2022/07/12 01:59:39;;;;;;;3.28;2.30;;;;;;;15.70;91.89;102425.03;5075237;28;20046;-36
2022/07/12 02:02:04;;;;;;;2.50;2.28;;;;;;;15.69;92.30;102422.53;5074692;28;20345;-36
2022/07/12 02:04:30;;;;;;;;;;;;;;;15.88;90.47;102428.81;5075791;28;20028;-36
2022/07/12 02:06:56;;;;;;;2.30;2.10;;;;;;;15.63;91.58;102413.38;5074560;28;19955;-36
2022/07/12 02:09:22;;;;;;;2.65;2.00;;;;;;;15.62;92.16;102421.75;5074197;28;20033;-36
2022/07/12 02:11:47;;;;;;;3.00;2.60;;;;;;;15.55;92.28;102419.06;5074528;28;20041;-36
2022/07/12 02:14:12;;;;;;;;;;;;;;;15.70;90.32;102414.09;5074564;28;20024;-36
2022/07/12 02:16:39;;;;;;;2.55;2.35;;;;;;;15.54;92.30;102411.97;5074535;28;20233;-36
2022/07/12 02:19:04;;;;;;;2.67;2.47;;;;;;;15.47;92.23;102408.47;5074299;28;20111;-36
2022/07/12 02:21:29;;;;;;;;;;;;;;;15.63;90.80;102410.63;5074971;28;20067;-36
2022/07/12 02:23:55;;;;;;;2.87;2.60;;;;;;;15.45;92.42;102407.84;5074829;28;19908;-36
2022/07/12 02:26:20;;;;;;;3.47;2.60;;;;;;;15.40;93.09;102415.88;5074579;28;20397;-36
2022/07/12 02:28:46;;;;;;;;;;;;;;;15.57;91.13;102414.25;5074713;28;20021;-36
2022/07/12 02:31:11;;;;;;;4.03;2.92;;;;;;;15.42;93.23;102413.75;5074401;28;20272;-36
2022/07/12 02:33:36;;;;;;;3.90;2.58;;;;;;;15.42;93.35;102414.59;5073187;28;20024;-36
2022/07/12 02:36:02;;;;;;;;;;;;;;;15.56;91.57;102409.00;5074796;28;20033;-36
2022/07/12 02:38:28;;;;;;;2.97;2.67;;;;;;;15.33;93.35;102410.50;5073653;28;19912;-36
2022/07/12 02:40:53;;;;;;;;;;;;;;;15.50;91.21;102412.63;5074333;28;20028;-37
2022/07/12 02:43:22;;;;;;;2.85;2.55;;;;;;;15.25;93.38;102407.22;5074680;28;20337;-36
2022/07/12 02:45:48;;;;;;;3.40;2.95;;;;;;;15.31;93.70;102412.59;5073761;28;20039;-36
2022/07/12 02:48:13;;;;;;;;;;;;;;;15.46;91.48;102410.34;5074223;28;20033;-36
2022/07/12 02:50:41;;;;;;;3.00;2.70;;;;;;;15.22;93.49;102403.03;5073767;28;19960;-36
2022/07/12 02:53:08;;;;;;;3.67;3.10;;;;;;;15.18;93.88;102408.13;5074454;28;20366;-36
2022/07/12 02:55:34;;;;;;;4.60;3.20;;;;;;;15.22;93.91;102418.56;5073293;28;20466;-36
2022/07/12 02:57:59;;;;;;;;;;;;;;;15.39;91.98;102419.66;5074745;28;20052;-36
2022/07/12 03:00:24;;;;;;;3.60;3.30;;;;;;;15.19;92.95;102408.97;5073265;28;19909;-36
2022/07/12 03:02:49;;;;;;;;;;;;;;;15.35;91.78;102410.28;5074263;28;20056;-36
2022/07/12 03:05:15;;;;;;;4.47;3.08;;;;;;;15.14;92.87;102416.97;5073212;28;19958;-36
2022/07/12 03:07:40;;;;;;;2.88;2.58;;;;;;;15.06;93.14;102412.63;5074200;28;20028;-36
2022/07/12 03:10:06;;;;;;;2.93;2.67;;;;;;;15.05;93.44;102404.69;5073291;28;20116;-36
2022/07/12 03:12:32;;;;;;;3.28;2.97;;;;;;;15.06;93.26;102409.06;5073596;28;20265;-36
2022/07/12 03:14:57;;;;;;;;;;;;;;;15.25;92.10;102412.69;5073488;28;20025;-36
2022/07/12 03:17:22;;;;;;;4.50;2.80;;;;;;;15.10;93.41;102413.84;5073828;28;20353;-37
2022/07/12 03:19:48;;;;;;;3.40;2.80;;;;;;;15.04;93.33;102414.75;5072903;28;20782;-37
2022/07/12 03:22:13;;;;;;;3.38;3.03;;;;;;;15.10;93.52;102410.28;5073235;28;20059;-36
2022/07/12 03:24:38;;;;;;;3.67;3.28;;;;;;;15.02;93.57;102407.84;5073277;28;20043;-37
2022/07/12 03:27:04;;;;;;;;;;;;;;;15.18;91.81;102412.75;5073606;28;20393;-37
2022/07/12 03:29:29;;;;;;;3.90;3.50;;;;;;;14.92;93.33;102397.44;5073016;28;19912;-36
2022/07/12 03:31:54;;;;;;;;;;;;;;;15.14;91.69;102411.53;5073794;28;20024;-36
2022/07/12 03:34:19;;;;;;;5.00;2.83;;;;;;;14.92;93.88;102400.16;5072834;28;19999;-36
2022/07/12 03:36:45;;;;;;;;;;;;;;;15.14;91.91;102412.34;5073743;28;20538;-36
2022/07/12 03:39:11;;;;;;;3.35;3.05;;;;;;;14.96;94.05;102397.84;5072730;28;19913;-36
2022/07/12 03:41:36;;;;;;;;;;;;;;;15.09;92.12;102406.75;5073941;28;20123;-36
2022/07/12 03:44:01;;;;;;;3.97;3.50;;;;;;;14.95;93.77;102402.47;5072807;28;19909;-36
2022/07/12 03:46:26;;;;;;;3.53;3.07;;;;;;;15.00;93.91;102413.53;5072744;28;20365;-36
2022/07/12 03:48:52;;;;;;;;;;;;;;;15.12;92.25;102417.19;5073790;28;20056;-36
2022/07/12 03:51:17;;;;;;;4.37;3.57;;;;;;;14.95;94.20;102418.81;5073209;28;19920;-36
2022/07/12 03:53:42;;;;;;;;;;;;;;;15.09;92.23;102408.63;5073069;28;20028;-36
2022/07/12 03:56:07;;;;;;;3.23;2.93;;;;;;;14.87;93.98;102410.91;5072840;28;19919;-36
2022/07/12 03:58:32;;;;;;;;;;;;;;;15.08;92.60;102413.25;5073561;28;20477;-36
2022/07/12 04:00:58;;;;;;;3.70;3.40;;;;;;;14.80;94.23;102402.78;5072572;28;19912;-36
2022/07/12 04:03:23;;;;;;;;;;;;;;;15.04;92.48;102406.56;5073003;28;20064;-36
2022/07/12 04:05:48;;;;;;;4.03;3.57;;;;;;;14.87;94.55;102406.28;5072835;28;19939;-36
2022/07/12 04:08:13;;;;;;;;;;;;;;;15.02;92.50;102403.22;5072189;28;20035;-36
2022/07/12 04:10:39;;;;;;;3.95;3.40;;;;;;;14.87;94.43;102403.56;5072344;28;19958;-36
2022/07/12 04:13:04;;;;;;;3.95;3.47;;;;;;;14.84;94.32;102406.75;5073446;28;20043;-36
2022/07/12 04:15:30;;;;;;;3.50;3.20;;;;;;;14.83;94.26;102406.94;5072696;28;20028;-36
2022/07/12 04:17:55;;;;;;;3.80;3.30;;;;;;;14.82;94.90;102411.56;5073325;28;20037;-36
2022/07/12 04:20:20;;;;;;;;;;;;;;;14.96;92.92;102412.28;5073068;28;20147;-36
2022/07/12 04:22:45;;;;;;;3.50;3.00;;;;;;;14.90;94.36;102419.47;5072644;28;19908;-36
2022/07/12 04:25:11;;;;;;;;;;;;;;;15.04;93.11;102416.66;5072360;28;20048;-36
2022/07/12 04:27:37;;;;;;;5.25;4.05;;;;;;;14.97;95.49;102433.03;5072596;28;19909;-36
2022/07/12 04:30:03;;;;;;;5.35;4.07;;;;;;;14.97;95.84;102433.03;5072505;28;20033;-37
2022/07/12 04:32:28;;;;;;;4.05;3.65;;;;;;;14.94;95.85;102436.22;5072812;28;20021;-36
2022/07/12 04:34:53;;;;;;;4.07;3.67;;;;;;;14.94;96.22;102437.03;5072980;28;20133;-36
2022/07/12 04:37:19;;;;;;;4.93;4.47;;;;;;;15.05;96.58;102445.53;5072645;28;20529;-36
2022/07/12 04:39:44;;;;;;;4.55;4.15;;;;;;;15.05;96.86;102449.09;5072408;28;20587;-36
2022/07/12 04:42:09;;;;;;;4.65;4.25;;;;;;;15.08;96.72;102445.94;5072757;28;20060;-36
2022/07/12 04:44:35;;;;;;;4.35;3.95;;;;;;;15.12;96.59;102435.41;5072147;28;20060;-36
2022/07/12 04:47:00;;;;;;;4.60;4.20;;;;;;;15.17;96.13;102432.84;5072705;28;20037;-36
2022/07/12 04:49:26;;;;;;;4.43;4.13;;;;;;;15.22;96.47;102430.28;5072178;28;20056;-36
2022/07/12 04:51:51;;;;;;;;;;;;;;;15.44;94.97;102428.84;5073479;28;20116;-36
2022/07/12 04:54:17;;;;;;;5.97;5.07;;;;;;;15.43;96.76;102434.53;5072030;28;19920;-37
2022/07/12 04:56:43;;;;;;;5.30;4.82;;;;;;;15.49;97.27;102428.16;5074535;28;20035;-37
2022/07/12 04:59:08;;;;;;;;;;;;;;;15.65;96.01;102429.50;5076002;28;20436;-36
2022/07/12 05:01:33;;;;;;;5.13;4.67;;;;;;;15.62;96.36;102422.59;5075859;28;19912;-36
2022/07/12 05:03:59;;;;;;;6.07;5.20;;;;;;;15.67;97.23;102421.94;5076107;28;20278;-36
2022/07/12 05:06:24;;;;;;;;;;;;;;;15.83;96.61;102432.22;5077094;28;20364;-36
2022/07/12 05:08:50;;;;;;;6.03;5.43;;;;;;;15.81;97.10;102433.50;5075628;28;19916;-36
2022/07/12 05:11:15;;;;;;;7.72;4.97;;;;;;;15.84;93.25;102435.78;5076556;28;20270;-36
2022/07/12 05:13:40;;;;;;;;;;;;;;;16.03;94.70;102439.34;5076077;28;20043;-36
2022/07/12 05:16:07;;;;;;;6.97;4.87;;;;;;;16.07;94.68;102444.13;5075772;28;19912;-36
2022/07/12 05:18:33;;;;;;;5.57;5.07;;;;;;;16.22;95.25;102447.28;5075565;28;20047;-36
2022/07/12 05:20:58;;;;;;;7.80;6.00;;;;;;;16.31;94.79;102438.78;5075944;28;20445;-36
2022/07/12 05:23:24;;;;;;;;;;;;;;;16.58;93.79;102450.97;5075698;28;20025;-36
2022/07/12 05:25:49;;;;;;;5.45;4.95;;;;;;;16.74;94.67;102460.47;5075725;28;20004;-37
2022/07/12 05:28:17;;;;;;;;;;;;;;;16.90;93.36;102453.50;5075576;28;20365;-37
2022/07/12 05:30:43;;;;;;;6.22;5.63;;;;;;;17.01;93.21;102455.41;5074610;28;19952;-36
2022/07/12 05:33:08;;;;;;;;;;;;;;;17.17;93.30;102460.19;5075495;28;20052;-36
2022/07/12 05:35:34;;;;;;;6.63;5.50;;;;;;;17.22;93.22;102462.19;5075234;28;19912;-36
2022/07/12 05:37:59;;;;;;;;;;;;;;;17.39;92.68;102462.34;5075884;28;20259;-36
2022/07/12 05:40:24;;;;;;;5.83;5.23;;;;;;;17.40;92.73;102474.94;5074813;28;20388;-36
2022/07/12 05:42:51;;;;;;;;;;;;;;;17.59;91.90;102468.28;5075512;28;20115;-37
2022/07/12 05:45:16;;;;;;;6.97;6.28;;;;;;;17.57;91.79;102475.06;5075223;28;19992;-36
2022/07/12 05:47:41;;;;;;;;;;;;;;;17.74;91.57;102476.88;5075910;28;20052;-36
2022/07/12 05:50:07;;;;;;;7.63;6.07;;;;;;;17.71;90.29;102477.34;5075031;28;20401;-36
2022/07/12 05:55:36;;;;;;;7.47;5.90;;;;;;;17.92;90.62;102494.22;5032705;28;19917;-36
2022/07/12 05:58:03;;;;;;;;;;;;;;;18.07;90.54;102505.50;5032946;28;20029;-36
2022/07/12 06:00:28;;;;;;;6.80;6.20;;;;;;;17.88;89.53;102504.81;5016097;28;19920;-36
2022/07/12 06:02:53;;;;;;;6.60;6.00;;;;;;;17.88;89.37;102496.59;5032561;28;20037;-36
2022/07/12 06:05:19;;;;;;;;;;;;;;;18.07;89.38;102501.94;5032881;28;20060;-36
2022/07/12 06:07:44;;;;;;;6.90;6.30;;;;;;;17.96;90.07;102496.25;5032551;28;19913;-36
2022/07/12 06:10:09;;;;;;;;;;;;;;;18.14;89.58;102502.63;5032592;28;20589;-36
2022/07/12 06:12:35;;;;;;;5.77;5.37;;;;;;;18.13;89.13;102496.31;5032207;28;19913;-36
2022/07/12 06:15:00;;;;;;;;;;;;;;;18.28;89.30;102491.16;5033361;28;20351;-36
2022/07/12 06:17:25;;;;;;;6.00;5.45;;;;;;;18.21;88.84;102482.28;5032140;28;19999;-36
2022/07/12 06:19:51;;;;;;;;;;;;;;;18.44;89.35;102489.56;5032580;28;20042;-36
2022/07/12 06:22:16;;;;;;;6.45;5.82;;;;;;;18.46;88.18;102494.81;5032166;28;19913;-36
2022/07/12 06:24:41;;;;;;;;;;;;;;;18.65;88.39;102499.03;5032385;28;20034;-37
2022/07/12 06:27:07;;;;;;;6.33;5.83;;;;;;;18.62;88.13;102496.75;5067111;28;19927;-37
2022/07/12 06:29:32;;;;;;;;;;;;;;;18.80;87.95;102498.50;5074016;28;20385;-37
2022/07/12 06:31:58;;;;;;;6.90;6.30;;;;;;;18.76;88.24;102495.41;5073721;28;19912;-36
2022/07/12 06:34:23;;;;;;;7.05;6.45;;;;;;;18.74;87.72;102494.00;5073985;28;20024;-36
2022/07/12 06:36:48;;;;;;;;;;;;;;;18.92;87.66;102491.03;5074324;28;20044;-36
2022/07/12 06:39:13;;;;;;;6.90;6.30;;;;;;;18.90;87.56;102490.47;5074545;28;19919;-36
2022/07/12 06:41:39;;;;;;;7.60;6.90;;;;;;;18.90;86.08;102498.69;5074378;28;20021;-36
2022/07/12 06:44:04;;;;;;;8.35;6.88;;;;;;;18.85;86.79;102490.38;5073949;28;20086;-36
2022/07/12 06:46:29;;;;;;;;;;;;;;;19.04;86.92;102491.81;5074491;28;20040;-36
2022/07/12 06:48:54;;;;;;;7.77;6.73;;;;;;;19.00;87.28;102484.34;5073696;28;19999;-36
2022/07/12 06:51:20;;;;;;;6.70;6.10;;;;;;;19.13;86.86;102489.50;5074143;28;20039;-36
2022/07/12 06:53:45;;;;;;;7.57;6.97;;;;;;;19.03;86.69;102468.22;5073552;28;20038;-36
2022/07/12 06:56:10;;;;;;;;;;;;;;;19.34;86.80;102493.41;5074248;28;20067;-36
2022/07/12 06:58:36;;;;;;;7.13;6.10;;;;;;;19.41;86.49;102501.44;5073619;28;19913;-36
2022/07/12 07:01:01;;;;;;;7.07;6.47;;;;;;;19.34;86.22;102471.44;5073401;28;20469;-36
2022/07/12 07:03:26;;;;;;;7.22;6.40;;;;;;;19.55;84.97;102505.50;5073388;28;20063;-37
2022/07/12 07:05:51;;;;;;;6.65;6.05;;;;;;;19.61;84.08;102496.31;5073567;28;20032;-37
2022/07/12 07:08:17;;;;;;;6.50;5.90;;;;;;;19.63;83.97;102491.41;5073043;28;20419;-36
2022/07/12 07:10:42;;;;;;;;;;;;;;;19.80;84.57;102492.19;5073855;28;20071;-36
2022/07/12 07:13:10;;;;;;;6.68;5.25;;;;;;;19.85;83.95;102488.69;5073641;28;20303;-37
2022/07/12 07:15:35;;;;;;;6.30;5.75;;;;;;;20.00;84.33;102496.31;5073096;28;20024;-36
2022/07/12 07:18:01;;;;;;;;;;;;;;;20.15;84.56;102496.50;5073619;28;20039;-37
2022/07/12 07:20:26;;;;;;;7.10;5.18;;;;;;;20.18;82.94;102497.91;5072331;28;19912;-37
2022/07/12 07:22:51;;;;;;;6.82;5.90;;;;;;;20.25;82.83;102496.66;5073633;28;20064;-37
2022/07/12 07:25:17;;;;;;;6.40;5.72;;;;;;;20.38;82.14;102489.91;5072819;28;20023;-36
2022/07/12 07:27:44;;;;;;;6.45;5.88;;;;;;;20.50;82.39;102490.66;5072938;28;20376;-37
2022/07/12 07:32:54;;;;;;;7.15;6.45;;;;;;;20.67;79.97;102496.03;5073085;28;20487;-36
2022/07/12 07:35:19;;;;;;;6.80;6.07;;;;;;;20.80;80.13;102492.06;5072699;28;20127;-37
2022/07/12 07:37:44;;;;;;;7.57;5.90;;;;;;;20.89;80.23;102485.00;5073288;28;20038;-37
2022/07/12 07:40:10;;;;;;;6.70;6.20;;;;;;;20.82;77.24;102476.94;5073157;28;20032;-35
2022/07/12 07:42:35;;;;;;;6.85;6.15;;;;;;;20.94;78.21;102481.47;5072605;28;20032;-35
2022/07/12 07:45:03;;;;;;;6.28;5.68;;;;;;;21.00;76.39;102483.16;5073327;28;20036;-36
2022/07/12 07:47:28;;;;;;;6.20;5.68;;;;;;;20.93;76.75;102477.84;5073019;28;20449;-36
2022/07/12 07:49:56;;;;;;;6.80;6.20;;;;;;;20.87;77.08;102464.34;5072605;28;20067;-36
2022/07/12 07:52:22;;;;;;;6.22;5.72;;;;;;;20.95;77.17;102477.63;5073309;28;20032;-36
2022/07/12 07:54:47;;;;;;;7.45;6.80;;;;;;;20.95;77.31;102477.63;5072989;28;20051;-36
2022/07/12 07:57:12;;;;;;;6.97;5.88;;;;;;;20.86;76.65;102459.94;5072788;28;20108;-36
2022/07/12 07:59:37;;;;;;;6.40;5.80;;;;;;;21.01;74.90;102482.06;5072851;28;20035;-36
2022/07/12 08:02:04;;;;;;;8.95;5.95;;;;;;;21.06;76.25;102474.69;5073077;28;20124;-36
2022/07/12 08:04:29;;;;;;;5.65;5.13;;;;;;;21.17;75.60;102480.28;5073183;28;20121;-36
2022/07/12 08:06:56;;;;;;;5.60;4.70;;;;;;;21.21;75.04;102473.97;5073014;28;20112;-36
2022/07/12 08:09:21;;;;;;;5.00;4.50;;;;;;;21.24;74.14;102469.88;5073030;28;20028;-36
2022/07/12 08:11:47;;;;;;;7.95;4.68;;;;;;;21.36;73.88;102478.81;5072341;28;20036;-36
2022/07/12 08:14:12;;;;;;;4.80;3.85;;;;;;;21.46;74.82;102484.38;5072475;28;20027;-37
2022/07/12 08:16:38;;;;;;;4.20;3.80;;;;;;;21.61;73.63;102486.41;5073262;28;20030;-37
2022/07/12 08:19:04;;;;;;;4.55;3.75;;;;;;;21.78;73.75;102494.50;5072603;28;20024;-37
2022/07/12 08:21:29;;;;;;;4.88;4.20;;;;;;;21.90;73.76;102477.75;5073029;28;20028;-37
2022/07/12 08:23:55;;;;;;;5.00;4.35;;;;;;;21.91;73.88;102471.16;5072436;28;20031;-37
2022/07/12 08:26:21;;;;;;;4.35;3.95;;;;;;;22.03;71.87;102482.78;5072445;28;20531;-37
2022/07/12 08:28:46;;;;;;;5.13;4.57;;;;;;;22.19;71.88;102486.47;5072027;28;20033;-37
2022/07/12 08:31:14;;;;;;;5.20;4.45;;;;;;;22.18;70.85;102487.56;5073134;28;20037;-37
2022/07/12 08:33:41;;;;;;;5.72;4.45;;;;;;;22.10;70.83;102486.09;5075913;28;20025;-37
2022/07/12 08:36:08;;;;;;;5.95;4.70;;;;;;;22.17;70.03;102489.50;5076723;28;20043;-37
2022/07/12 08:38:36;;;;;;;5.57;4.95;;;;;;;22.16;70.58;102495.28;5075748;28;20031;-37
2022/07/12 08:41:01;;;;;;;4.72;4.28;;;;;;;22.21;71.82;102495.31;5076515;28;20377;-37
2022/07/12 08:43:26;;;;;;;4.28;3.88;;;;;;;22.24;69.46;102498.31;5076291;28;20031;-37
2022/07/12 08:45:52;;;;;;;5.25;4.22;;;;;;;22.31;68.94;102490.66;5075388;28;20048;-37
2022/07/12 08:48:17;;;;;;;5.97;4.95;;;;;;;22.37;68.40;102494.25;5076680;28;20035;-37
2022/07/12 08:50:59;;;;;;;4.70;4.20;;;;;;;22.37;67.31;102499.75;5076240;28;20052;-37
2022/07/12 08:53:24;;;;;;;4.45;4.00;;;;;;;22.54;68.46;102502.28;5076108;28;20100;-37
2022/07/12 08:55:49;;;;;;;3.90;3.50;;;;;;;22.78;65.78;102506.19;5075410;28;20116;-37
2022/07/12 08:58:16;;;;;;;4.20;3.90;;;;;;;22.76;65.62;102502.06;5076205;28;20063;-36
2022/07/12 09:00:41;;;;;;;4.10;3.70;;;;;;;22.87;64.52;102490.75;5075436;28;20029;-37
2022/07/12 09:03:07;;;;;;;4.47;3.78;;;;;;;23.07;63.65;102509.28;5076240;28;20036;-36
2022/07/12 09:05:33;;;;;;;4.65;4.20;;;;;;;23.06;64.24;102498.53;5075453;28;20050;-37
2022/07/12 09:08:06;;;;;;;5.22;4.07;;;;;;;23.19;65.21;102506.28;5076355;28;20029;-36
2022/07/12 09:10:32;;;;;;;4.40;4.00;;;;;;;23.21;62.84;102498.53;5075484;28;20070;-37
2022/07/12 09:12:58;;;;;;;4.53;4.13;;;;;;;23.26;62.75;102501.28;5076054;28;20025;-36
2022/07/12 09:15:24;;;;;;;11.02;4.40;;;;;;;23.19;62.68;102472.34;5075657;28;20032;-36
2022/07/12 09:17:58;;;;;;;5.80;3.38;;;;;;;23.51;62.11;102497.69;5075245;28;20062;-37
2022/07/12 09:20:32;;;;;;;5.50;3.58;;;;;;;23.54;62.51;102490.78;5075140;28;20033;-36
2022/07/12 09:23:06;;;;;;;4.80;3.60;;;;;;;23.61;63.11;102492.13;5075159;28;20116;-37
2022/07/12 09:25:32;;;;;;;4.28;3.53;;;;;;;23.64;61.79;102496.31;5075045;28;20105;-37
2022/07/12 09:27:58;;;;;;;5.82;3.58;;;;;;;23.73;61.51;102500.16;5076130;28;20028;-37
2022/07/12 09:30:28;;;;;;;3.72;2.55;;;;;;;23.88;61.84;102497.34;5074779;28;20025;-36
2022/07/12 09:38:26;;;;;;;4.43;3.08;;;;;;;24.25;60.30;102484.22;5075220;28;20466;-36
2022/07/12 09:40:53;;;;;;;3.30;2.72;;;;;;;24.30;59.98;102489.72;5075149;28;20048;-36
2022/07/12 09:43:19;;;;;;;3.90;3.25;;;;;;;24.18;59.56;102487.28;5075286;28;20054;-37
2022/07/12 09:45:47;;;;;;;3.28;2.97;;;;;;;24.29;60.50;102496.34;5075238;28;20032;-37
2022/07/12 09:48:13;;;;;;;3.80;2.85;;;;;;;24.30;59.62;102492.47;5074971;28;20040;-36
2022/07/12 09:50:39;;;;;;;3.65;3.05;;;;;;;24.04;58.66;102489.00;5075244;28;20048;-37
2022/07/12 09:53:09;;;;;;;4.30;2.70;;;;;;;24.42;59.77;102484.72;5074803;28;20404;-36
2022/07/12 09:55:37;;;;;;;2.95;2.50;;;;;;;24.59;59.76;102485.16;5074540;28;20024;-37
2022/07/12 09:58:04;;;;;;;5.68;3.20;;;;;;;24.66;58.70;102484.84;5074994;28;20108;-36
2022/07/12 10:00:31;;;;;;;5.13;3.22;;;;;;;24.87;59.99;102480.81;5074409;28;20222;-36
2022/07/12 10:02:58;;;;;;;3.13;2.78;;;;;;;24.97;59.12;102471.63;5075137;28;20450;-37
2022/07/12 10:05:24;;;;;;;3.13;2.83;;;;;;;25.05;56.91;102470.19;5075435;28;20078;-37
2022/07/12 10:07:50;;;;;;;2.95;2.53;;;;;;;25.19;56.26;102465.66;5075157;28;20132;-37
2022/07/12 10:10:16;;;;;;;2.85;2.65;;;;;;;25.23;56.47;102460.34;5074385;28;20028;-37
2022/07/12 10:12:43;;;;;;;2.42;2.03;;;;;;;25.54;59.92;102461.72;5074740;28;20389;-36
2022/07/12 10:15:14;;;;;;;3.28;2.60;;;;;;;25.43;55.66;102461.00;5074763;28;20381;-37
2022/07/12 10:17:43;;;;;;;3.22;2.65;;;;;;;25.37;57.00;102455.78;5074826;28;20033;-37
2022/07/12 10:20:41;;;;;;;3.35;3.05;;;;;;;25.28;58.25;102454.75;5073218;28;20099;-38
2022/07/12 10:23:30;;;;;;;3.40;2.90;;;;;;;25.30;59.05;102453.38;5074123;28;20047;-36
2022/07/12 10:25:55;;;;;;;5.15;3.05;;;;;;;25.36;58.19;102445.81;5074230;28;20029;-37
2022/07/12 10:28:21;;;;;;;3.83;2.53;;;;;;;25.49;57.98;102445.16;5074578;28;20372;-37
2022/07/12 10:30:48;;;;;;;4.00;3.33;;;;;;;25.54;57.92;102450.63;5074169;28;20434;-36
2022/07/12 10:33:19;;;;;;;5.63;2.97;;;;;;;25.42;57.48;102437.16;5074650;28;20433;-37
2022/07/12 10:36:17;;;;;;;3.97;2.80;;;;;;;25.76;57.58;102454.84;5074412;28;20103;-37
2022/07/12 10:39:13;;;;;;;2.63;2.35;;;;;;;25.81;58.02;102449.22;5012538;28;20087;-37
2022/07/12 10:41:38;;;;;;;3.30;2.28;;;;;;;25.79;56.75;102457.03;5012231;28;20348;-38
2022/07/12 10:44:04;;;;;;;4.50;2.75;;;;;;;25.66;56.15;102459.34;5011946;28;20038;-37
2022/07/12 10:46:30;;;;;;;3.20;2.67;;;;;;;25.78;56.61;102455.38;5011923;28;20474;-37
2022/07/12 10:49:27;;;;;;;3.65;2.83;;;;;;;25.91;56.21;102454.66;5011760;28;20074;-37
2022/07/12 10:52:11;;;;;;;4.60;2.40;;;;;;;26.16;55.85;102450.75;5011799;28;20052;-37
2022/07/12 10:54:50;;;;;;;2.45;1.50;;;;;;;26.36;53.47;102444.09;5011477;28;20045;-37
2022/07/12 10:57:34;;;;;;;4.13;1.67;;;;;;;26.36;53.80;102455.19;5012238;28;20034;-38
2022/07/12 11:00:00;;;;;;;1.77;1.40;;;;;;;26.50;53.65;102456.13;5012044;28;20030;-41
2022/07/12 11:02:27;;;;;;;2.42;1.50;;;;;;;26.61;52.68;102456.78;5012377;28;20096;-38
2022/07/12 11:04:52;;;;;;;2.00;1.25;;;;;;;26.77;50.18;102444.31;5011620;28;20108;-37
2022/07/12 11:07:18;;;;;;;1.45;1.10;;;;;;;26.97;49.38;102448.69;5011982;28;20073;-37
2022/07/12 11:09:44;;;;;;;1.20;0.90;;;;;;;26.96;48.13;102447.06;5011381;28;20030;-37
2022/07/12 11:12:09;;;;;;;2.25;1.08;;;;;;;27.15;49.03;102455.38;5012012;28;20064;-37
2022/07/12 11:14:35;;;;;;;2.17;1.30;;;;;;;27.23;49.66;102449.09;5050176;28;20036;-37
2022/07/12 11:17:01;;;;;;;2.42;1.50;;;;;;;27.25;51.29;102451.59;5074290;28;20021;-38
2022/07/12 11:19:29;;;;;;;2.60;1.48;;;;;;;27.31;47.51;102448.41;5073890;28;20051;-37
2022/07/12 11:21:58;;;;;;;3.30;1.35;;;;;;;27.27;47.62;102438.19;5072968;28;20522;-37
2022/07/12 11:24:31;;;;;;;2.67;1.30;;;;;;;27.32;49.15;102446.44;5073432;28;20120;-37
2022/07/12 11:26:59;;;;;;;2.40;1.48;;;;;;;27.37;47.28;102440.78;5073419;28;20025;-37
2022/07/12 11:29:25;;;;;;;1.73;1.20;;;;;;;27.37;47.89;102443.56;5071772;28;20024;-37
2022/07/12 11:32:04;;;;;;;3.50;1.50;;;;;;;27.33;49.10;102434.19;5072998;28;20039;-37
2022/07/12 11:34:29;;;;;;;2.17;1.17;;;;;;;27.48;48.06;102428.38;5073344;28;20481;-37
2022/07/12 11:37:00;;;;;;;2.75;1.33;;;;;;;27.47;47.80;102418.38;5073321;28;20150;-37
2022/07/12 11:39:35;;;;;;;2.63;1.50;;;;;;;27.61;47.96;102432.28;5072930;28;20453;-37
2022/07/12 11:42:02;;;;;;;4.47;1.33;;;;;;;27.70;46.58;102427.63;5072778;28;20440;-36
2022/07/12 11:44:49;;;;;;;1.60;1.20;;;;;;;27.92;48.52;102435.28;5073579;28;20028;-37
2022/07/12 11:47:15;;;;;;;2.55;1.33;;;;;;;27.96;46.53;102433.50;5073634;28;20029;-37
2022/07/12 11:49:44;;;;;;;1.85;1.67;;;;;;;27.80;48.55;102444.13;5072808;28;20063;-37